Aérodrome :







RETROUVEZ-NOUS SUR...

 
LOGIN :

S'inscrire | Disclaimer

   EN    FR    IT 

 









Légende :    VFR   VFR Marginal   IFR   IFR Intensif   IFR Très Intensif
Visi : 
Plafond : 
>= 8 km
>= 3000ft
5 à 8 km
1000 à 3000 ft
1500m à 5 km
500 à 1000 ft
800 à 1500m
200 à 500 ft
< 800m
< 200 ft
Symboles :   Orages  Brouillard  Fortes neiges  Fortes précipitations  Vent > 20 kt






- Altitude de l'aérodrome : 603 ft
- Code IATA : LEB


KLEB - Lebanon Municipal

DERNIER METAR :
  • 210003Z 31004KT 10SM SCT013 OVC025 02/M01 A3002 RMK AO2 T00171011

METARs EXPIRÉS :
  • 202353Z 32003KT 10SM FEW010 BKN013 OVC025 02/M01 A3002 RMK AO2 SNE25 SLP172 P0000 60005 T00171011 10022 20017 53015
  • 202316Z 32003KT 4SM -SN FEW008 BKN015 OVC021 02/M01 A3001 RMK AO2 P0000 T00171011
  • 202253Z 00000KT 3SM -SN BR BKN012 OVC022 02/M01 A3000 RMK AO2 SNB27 SLP165 P0001 T00171011
  • 202240Z 32003KT 3SM -SN BR BKN012 OVC022 02/M01 A2999 RMK AO2 SNB27 P0000 T00171011
  • 202208Z 00000KT 3SM BR BKN016 OVC022 02/M01 A2998 RMK AO2 T00221006
  • 202153Z VRB05KT 3SM BR FEW005 BKN014 OVC020 02/M01 A2998 RMK AO2 SLP157 T00171006

TAF KLEB
Valide du 21 à 00h jusqu'au 22 à 00h UTC


202320Z 2100/2124 00000KT 3SM -SN BR BKN012 OVC022
FM210300 00000KT 6SM BR OVC019
FM211000 00000KT 5SM BR SKC
FM211300 00000KT P6SM BKN150
FM211800 00000KT 6SM BR OVC250



MET'MAP, la Météo Aéronautique d'un coup d'oeil ! - Copyright ORBIFLY Décembre 2007 - Disclaimer

ORBIFLY MET'MAP TEAM :

Programmation & Développement : Alexandra Zaïnal
Conception & Développement : Baudouin d'Aumeries
Co-Programmation & Développement : Marc-Olivier Méhu
Soutien technique & logistique : Manuel Goepfert

Contact : metmap@orbifly.com




SOURCES & CREDITS :

   NOAA